sensor_id;sensor_type;location;lat;lon;timestamp;temperature;humidity
37356;DHT22;48747;50.250;18.848;2023-09-12T00:01:17;17.80;99.90
37356;DHT22;48747;50.250;18.848;2023-09-12T00:03:22;17.80;99.90
37356;DHT22;48747;50.250;18.848;2023-09-12T00:05:25;17.80;99.90
37356;DHT22;48747;50.250;18.848;2023-09-12T00:07:28;17.80;99.90
37356;DHT22;48747;50.250;18.848;2023-09-12T00:09:31;17.80;99.90
37356;DHT22;48747;50.250;18.848;2023-09-12T00:11:34;17.80;99.90
37356;DHT22;48747;50.250;18.848;2023-09-12T00:13:39;17.90;99.90
37356;DHT22;48747;50.250;18.848;2023-09-12T00:15:43;17.90;99.90
37356;DHT22;48747;50.250;18.848;2023-09-12T00:17:46;17.90;99.90
37356;DHT22;48747;50.250;18.848;2023-09-12T00:19:50;17.90;99.90
37356;DHT22;48747;50.250;18.848;2023-09-12T00:21:53;17.80;99.90
37356;DHT22;48747;50.250;18.848;2023-09-12T00:23:57;17.80;99.90
37356;DHT22;48747;50.250;18.848;2023-09-12T00:26:00;17.70;99.90
37356;DHT22;48747;50.250;18.848;2023-09-12T00:28:03;17.70;99.90
37356;DHT22;48747;50.250;18.848;2023-09-12T00:30:07;17.70;99.90
37356;DHT22;48747;50.250;18.848;2023-09-12T00:32:10;17.60;99.90
37356;DHT22;48747;50.250;18.848;2023-09-12T00:34:16;17.60;99.90
37356;DHT22;48747;50.250;18.848;2023-09-12T00:36:19;17.60;99.90
37356;DHT22;48747;50.250;18.848;2023-09-12T00:38:22;17.60;99.90
37356;DHT22;48747;50.250;18.848;2023-09-12T00:40:26;17.60;99.90
37356;DHT22;48747;50.250;18.848;2023-09-12T00:42:29;17.60;99.90
37356;DHT22;48747;50.250;18.848;2023-09-12T00:44:32;17.60;99.90
37356;DHT22;48747;50.250;18.848;2023-09-12T00:46:35;17.60;99.90
37356;DHT22;48747;50.250;18.848;2023-09-12T00:48:39;17.60;99.90
37356;DHT22;48747;50.250;18.848;2023-09-12T00:50:43;17.60;99.90
37356;DHT22;48747;50.250;18.848;2023-09-12T00:52:47;17.60;99.90
37356;DHT22;48747;50.250;18.848;2023-09-12T00:54:50;17.50;99.90
37356;DHT22;48747;50.250;18.848;2023-09-12T00:56:54;17.50;99.90
37356;DHT22;48747;50.250;18.848;2023-09-12T00:58:57;17.50;99.90
37356;DHT22;48747;50.250;18.848;2023-09-12T01:01:01;17.50;99.90
37356;DHT22;48747;50.250;18.848;2023-09-12T01:03:05;17.40;99.90
37356;DHT22;48747;50.250;18.848;2023-09-12T01:05:09;17.40;99.90
37356;DHT22;48747;50.250;18.848;2023-09-12T01:07:12;17.40;99.90
37356;DHT22;48747;50.250;18.848;2023-09-12T01:09:15;17.40;99.90
37356;DHT22;48747;50.250;18.848;2023-09-12T01:11:20;17.40;99.90
37356;DHT22;48747;50.250;18.848;2023-09-12T01:13:23;17.50;99.90
37356;DHT22;48747;50.250;18.848;2023-09-12T01:15:26;17.50;99.90
37356;DHT22;48747;50.250;18.848;2023-09-12T01:17:30;17.60;99.90
37356;DHT22;48747;50.250;18.848;2023-09-12T01:19:33;17.60;99.90
37356;DHT22;48747;50.250;18.848;2023-09-12T01:22:01;17.60;99.90
37356;DHT22;48747;50.250;18.848;2023-09-12T01:26:49;17.50;99.90
37356;DHT22;48747;50.250;18.848;2023-09-12T01:28:55;17.50;99.90
37356;DHT22;48747;50.250;18.848;2023-09-12T01:31:01;17.50;99.90
37356;DHT22;48747;50.250;18.848;2023-09-12T01:33:06;17.50;99.90
37356;DHT22;48747;50.250;18.848;2023-09-12T01:35:09;17.50;99.90
37356;DHT22;48747;50.250;18.848;2023-09-12T01:37:12;17.50;99.90
37356;DHT22;48747;50.250;18.848;2023-09-12T01:39:15;17.50;99.90
37356;DHT22;48747;50.250;18.848;2023-09-12T01:41:19;17.40;99.90
37356;DHT22;48747;50.250;18.848;2023-09-12T01:43:24;17.30;99.90
37356;DHT22;48747;50.250;18.848;2023-09-12T01:45:28;17.30;99.90
37356;DHT22;48747;50.250;18.848;2023-09-12T01:47:31;17.30;99.90
37356;DHT22;48747;50.250;18.848;2023-09-12T01:49:37;17.30;99.90
37356;DHT22;48747;50.250;18.848;2023-09-12T01:51:41;17.20;99.90
37356;DHT22;48747;50.250;18.848;2023-09-12T01:53:45;17.20;99.90
37356;DHT22;48747;50.250;18.848;2023-09-12T01:55:49;17.20;99.90
37356;DHT22;48747;50.250;18.848;2023-09-12T01:57:52;17.20;99.90
37356;DHT22;48747;50.250;18.848;2023-09-12T01:59:55;17.20;99.90
37356;DHT22;48747;50.250;18.848;2023-09-12T02:01:58;17.20;99.90
37356;DHT22;48747;50.250;18.848;2023-09-12T02:04:01;17.20;99.90
37356;DHT22;48747;50.250;18.848;2023-09-12T02:06:06;17.20;99.90
37356;DHT22;48747;50.250;18.848;2023-09-12T02:08:09;17.10;99.90
37356;DHT22;48747;50.250;18.848;2023-09-12T02:10:12;17.00;99.90
37356;DHT22;48747;50.250;18.848;2023-09-12T02:12:16;17.00;99.90
37356;DHT22;48747;50.250;18.848;2023-09-12T02:14:19;16.90;99.90
37356;DHT22;48747;50.250;18.848;2023-09-12T02:16:22;17.00;99.90
37356;DHT22;48747;50.250;18.848;2023-09-12T02:18:25;17.00;99.90
37356;DHT22;48747;50.250;18.848;2023-09-12T02:20:28;17.10;99.90
37356;DHT22;48747;50.250;18.848;2023-09-12T02:22:31;17.10;99.90
37356;DHT22;48747;50.250;18.848;2023-09-12T02:24:37;17.20;99.90
37356;DHT22;48747;50.250;18.848;2023-09-12T02:26:40;17.20;99.90
37356;DHT22;48747;50.250;18.848;2023-09-12T02:28:44;17.20;99.90
37356;DHT22;48747;50.250;18.848;2023-09-12T02:30:47;17.10;99.90
37356;DHT22;48747;50.250;18.848;2023-09-12T02:32:50;17.10;99.90
37356;DHT22;48747;50.250;18.848;2023-09-12T02:34:53;17.10;99.90
37356;DHT22;48747;50.250;18.848;2023-09-12T02:36:58;17.00;99.90
37356;DHT22;48747;50.250;18.848;2023-09-12T02:39:01;16.90;99.90
37356;DHT22;48747;50.250;18.848;2023-09-12T02:41:06;16.90;99.90
37356;DHT22;48747;50.250;18.848;2023-09-12T02:43:09;16.90;99.90
37356;DHT22;48747;50.250;18.848;2023-09-12T02:45:12;16.90;99.90
37356;DHT22;48747;50.250;18.848;2023-09-12T02:47:15;16.90;99.90
37356;DHT22;48747;50.250;18.848;2023-09-12T02:49:18;16.80;99.90
37356;DHT22;48747;50.250;18.848;2023-09-12T02:51:21;16.80;99.90
37356;DHT22;48747;50.250;18.848;2023-09-12T02:53:26;16.80;99.90
37356;DHT22;48747;50.250;18.848;2023-09-12T02:55:29;16.90;99.90
37356;DHT22;48747;50.250;18.848;2023-09-12T02:57:32;16.90;99.90
37356;DHT22;48747;50.250;18.848;2023-09-12T02:59:35;16.90;99.90
37356;DHT22;48747;50.250;18.848;2023-09-12T03:01:38;16.90;99.90
37356;DHT22;48747;50.250;18.848;2023-09-12T03:03:41;16.90;99.90
37356;DHT22;48747;50.250;18.848;2023-09-12T03:05:44;16.80;99.90
37356;DHT22;48747;50.250;18.848;2023-09-12T03:07:47;16.90;99.90
37356;DHT22;48747;50.250;18.848;2023-09-12T03:09:50;16.80;99.90
37356;DHT22;48747;50.250;18.848;2023-09-12T03:11:53;16.80;99.90
37356;DHT22;48747;50.250;18.848;2023-09-12T03:13:56;16.80;99.90
37356;DHT22;48747;50.250;18.848;2023-09-12T03:16:00;16.90;99.90
37356;DHT22;48747;50.250;18.848;2023-09-12T03:18:03;16.90;99.90
37356;DHT22;48747;50.250;18.848;2023-09-12T03:20:07;16.90;99.90
37356;DHT22;48747;50.250;18.848;2023-09-12T03:22:10;16.90;99.90
37356;DHT22;48747;50.250;18.848;2023-09-12T03:24:13;16.80;99.90
37356;DHT22;48747;50.250;18.848;2023-09-12T03:26:18;16.80;99.90
37356;DHT22;48747;50.250;18.848;2023-09-12T03:28:21;16.70;99.90
37356;DHT22;48747;50.250;18.848;2023-09-12T03:30:24;16.70;99.90
37356;DHT22;48747;50.250;18.848;2023-09-12T03:32:27;16.70;99.90
37356;DHT22;48747;50.250;18.848;2023-09-12T03:34:30;16.70;99.90
37356;DHT22;48747;50.250;18.848;2023-09-12T03:36:33;16.70;99.90
37356;DHT22;48747;50.250;18.848;2023-09-12T03:38:36;16.60;99.90
37356;DHT22;48747;50.250;18.848;2023-09-12T03:40:39;16.60;99.90
37356;DHT22;48747;50.250;18.848;2023-09-12T03:42:42;16.60;99.90
37356;DHT22;48747;50.250;18.848;2023-09-12T03:44:45;16.50;99.90
37356;DHT22;48747;50.250;18.848;2023-09-12T03:46:48;16.60;99.90
37356;DHT22;48747;50.250;18.848;2023-09-12T03:48:51;16.60;99.90
37356;DHT22;48747;50.250;18.848;2023-09-12T03:50:54;16.60;99.90
37356;DHT22;48747;50.250;18.848;2023-09-12T03:52:57;16.50;99.90
37356;DHT22;48747;50.250;18.848;2023-09-12T03:55:00;16.50;99.90
37356;DHT22;48747;50.250;18.848;2023-09-12T03:57:04;16.50;99.90
37356;DHT22;48747;50.250;18.848;2023-09-12T03:59:07;16.50;99.90
37356;DHT22;48747;50.250;18.848;2023-09-12T04:01:10;16.50;99.90
37356;DHT22;48747;50.250;18.848;2023-09-12T04:03:13;16.40;99.90
37356;DHT22;48747;50.250;18.848;2023-09-12T04:05:18;16.40;99.90
37356;DHT22;48747;50.250;18.848;2023-09-12T04:07:21;16.30;99.90
37356;DHT22;48747;50.250;18.848;2023-09-12T04:09:24;16.30;99.90
37356;DHT22;48747;50.250;18.848;2023-09-12T04:11:28;16.20;99.90
37356;DHT22;48747;50.250;18.848;2023-09-12T04:13:31;16.20;99.90
37356;DHT22;48747;50.250;18.848;2023-09-12T04:15:35;16.30;99.90
37356;DHT22;48747;50.250;18.848;2023-09-12T04:17:38;16.30;99.90
37356;DHT22;48747;50.250;18.848;2023-09-12T04:19:41;16.30;99.90
37356;DHT22;48747;50.250;18.848;2023-09-12T04:21:44;16.40;99.90
37356;DHT22;48747;50.250;18.848;2023-09-12T04:23:47;16.40;99.90
37356;DHT22;48747;50.250;18.848;2023-09-12T04:25:51;16.40;99.90
37356;DHT22;48747;50.250;18.848;2023-09-12T04:27:54;16.40;99.90
37356;DHT22;48747;50.250;18.848;2023-09-12T04:29:57;16.40;99.90
37356;DHT22;48747;50.250;18.848;2023-09-12T04:32:07;16.40;99.90
37356;DHT22;48747;50.250;18.848;2023-09-12T04:34:06;16.40;99.90
37356;DHT22;48747;50.250;18.848;2023-09-12T04:36:09;16.40;99.90
37356;DHT22;48747;50.250;18.848;2023-09-12T04:38:12;16.40;99.90
37356;DHT22;48747;50.250;18.848;2023-09-12T04:40:15;16.50;99.90
37356;DHT22;48747;50.250;18.848;2023-09-12T04:42:18;16.60;99.90
37356;DHT22;48747;50.250;18.848;2023-09-12T04:44:21;16.60;99.90
37356;DHT22;48747;50.250;18.848;2023-09-12T04:46:24;16.70;99.90
37356;DHT22;48747;50.250;18.848;2023-09-12T04:48:27;16.70;99.90
37356;DHT22;48747;50.250;18.848;2023-09-12T04:50:30;16.80;99.90
37356;DHT22;48747;50.250;18.848;2023-09-12T04:52:33;16.90;99.90
37356;DHT22;48747;50.250;18.848;2023-09-12T04:54:36;16.90;99.90
37356;DHT22;48747;50.250;18.848;2023-09-12T04:56:39;16.90;99.90
37356;DHT22;48747;50.250;18.848;2023-09-12T04:58:43;17.00;99.90
37356;DHT22;48747;50.250;18.848;2023-09-12T05:00:46;17.00;99.90
37356;DHT22;48747;50.250;18.848;2023-09-12T05:02:49;17.10;99.90
37356;DHT22;48747;50.250;18.848;2023-09-12T05:04:52;17.10;99.90
37356;DHT22;48747;50.250;18.848;2023-09-12T05:06:55;17.10;99.90
37356;DHT22;48747;50.250;18.848;2023-09-12T05:08:58;17.20;99.90
37356;DHT22;48747;50.250;18.848;2023-09-12T05:11:01;17.20;99.90
37356;DHT22;48747;50.250;18.848;2023-09-12T05:13:05;17.30;99.90
37356;DHT22;48747;50.250;18.848;2023-09-12T05:15:08;17.30;99.90
37356;DHT22;48747;50.250;18.848;2023-09-12T05:17:11;17.40;99.90
37356;DHT22;48747;50.250;18.848;2023-09-12T05:19:14;17.40;99.90
37356;DHT22;48747;50.250;18.848;2023-09-12T05:21:17;17.50;99.90
37356;DHT22;48747;50.250;18.848;2023-09-12T05:23:20;17.50;99.90
37356;DHT22;48747;50.250;18.848;2023-09-12T05:25:23;17.60;99.90
37356;DHT22;48747;50.250;18.848;2023-09-12T05:27:28;17.70;99.90
37356;DHT22;48747;50.250;18.848;2023-09-12T05:29:31;17.70;99.90
37356;DHT22;48747;50.250;18.848;2023-09-12T05:31:34;17.80;99.90
37356;DHT22;48747;50.250;18.848;2023-09-12T05:33:38;17.80;99.90
37356;DHT22;48747;50.250;18.848;2023-09-12T05:35:41;17.90;99.90
37356;DHT22;48747;50.250;18.848;2023-09-12T05:37:44;18.00;99.90
37356;DHT22;48747;50.250;18.848;2023-09-12T05:39:47;18.10;99.90
37356;DHT22;48747;50.250;18.848;2023-09-12T05:41:50;18.10;99.90
37356;DHT22;48747;50.250;18.848;2023-09-12T05:43:53;18.20;99.90
37356;DHT22;48747;50.250;18.848;2023-09-12T05:45:56;18.30;99.90
37356;DHT22;48747;50.250;18.848;2023-09-12T05:48:00;18.40;99.90
37356;DHT22;48747;50.250;18.848;2023-09-12T05:50:05;18.40;99.90
37356;DHT22;48747;50.250;18.848;2023-09-12T05:52:09;18.50;99.90
37356;DHT22;48747;50.250;18.848;2023-09-12T05:54:12;18.50;99.90
37356;DHT22;48747;50.250;18.848;2023-09-12T05:56:16;18.60;99.90
37356;DHT22;48747;50.250;18.848;2023-09-12T05:58:19;18.80;99.90
37356;DHT22;48747;50.250;18.848;2023-09-12T06:00:22;18.80;99.90
37356;DHT22;48747;50.250;18.848;2023-09-12T06:02:26;18.90;99.90
37356;DHT22;48747;50.250;18.848;2023-09-12T06:04:29;18.90;99.90
37356;DHT22;48747;50.250;18.848;2023-09-12T06:06:32;19.10;99.90
37356;DHT22;48747;50.250;18.848;2023-09-12T06:08:36;19.20;99.90
37356;DHT22;48747;50.250;18.848;2023-09-12T06:10:39;19.30;99.90
37356;DHT22;48747;50.250;18.848;2023-09-12T06:12:42;19.40;99.90
37356;DHT22;48747;50.250;18.848;2023-09-12T06:14:45;19.40;99.90
37356;DHT22;48747;50.250;18.848;2023-09-12T06:16:48;19.50;99.90
37356;DHT22;48747;50.250;18.848;2023-09-12T06:18:51;19.60;99.90
37356;DHT22;48747;50.250;18.848;2023-09-12T06:20:55;19.70;99.90
37356;DHT22;48747;50.250;18.848;2023-09-12T06:22:58;19.80;99.90
37356;DHT22;48747;50.250;18.848;2023-09-12T06:25:01;19.90;99.90
37356;DHT22;48747;50.250;18.848;2023-09-12T06:27:05;19.90;99.90
37356;DHT22;48747;50.250;18.848;2023-09-12T06:29:09;20.00;99.90
37356;DHT22;48747;50.250;18.848;2023-09-12T06:31:12;20.10;99.90
37356;DHT22;48747;50.250;18.848;2023-09-12T06:33:15;20.20;99.90
37356;DHT22;48747;50.250;18.848;2023-09-12T06:35:18;20.30;99.90
37356;DHT22;48747;50.250;18.848;2023-09-12T06:37:21;20.40;99.90
37356;DHT22;48747;50.250;18.848;2023-09-12T06:39:24;20.40;99.90
37356;DHT22;48747;50.250;18.848;2023-09-12T06:41:27;20.50;99.90
37356;DHT22;48747;50.250;18.848;2023-09-12T06:43:30;20.60;99.90
37356;DHT22;48747;50.250;18.848;2023-09-12T06:45:33;20.70;99.90
37356;DHT22;48747;50.250;18.848;2023-09-12T06:47:38;20.80;99.90
37356;DHT22;48747;50.250;18.848;2023-09-12T06:49:41;20.80;99.90
37356;DHT22;48747;50.250;18.848;2023-09-12T06:51:44;21.00;99.90
37356;DHT22;48747;50.250;18.848;2023-09-12T06:53:47;21.00;99.90
37356;DHT22;48747;50.250;18.848;2023-09-12T06:55:50;21.10;99.90
37356;DHT22;48747;50.250;18.848;2023-09-12T06:57:53;21.20;99.90
37356;DHT22;48747;50.250;18.848;2023-09-12T06:59:56;21.30;99.90
37356;DHT22;48747;50.250;18.848;2023-09-12T07:02:00;21.40;99.90
37356;DHT22;48747;50.250;18.848;2023-09-12T07:04:03;21.60;99.90
37356;DHT22;48747;50.250;18.848;2023-09-12T07:06:06;21.60;99.90
37356;DHT22;48747;50.250;18.848;2023-09-12T07:08:10;21.70;99.90
37356;DHT22;48747;50.250;18.848;2023-09-12T07:10:13;21.70;99.90
37356;DHT22;48747;50.250;18.848;2023-09-12T07:12:17;21.80;99.90
37356;DHT22;48747;50.250;18.848;2023-09-12T07:14:20;21.90;99.90
37356;DHT22;48747;50.250;18.848;2023-09-12T07:16:23;22.00;99.90
37356;DHT22;48747;50.250;18.848;2023-09-12T07:18:27;22.10;99.90
37356;DHT22;48747;50.250;18.848;2023-09-12T07:20:30;22.20;99.90
37356;DHT22;48747;50.250;18.848;2023-09-12T07:22:33;22.30;99.90
37356;DHT22;48747;50.250;18.848;2023-09-12T07:24:36;22.30;99.90
37356;DHT22;48747;50.250;18.848;2023-09-12T07:26:39;22.40;99.90
37356;DHT22;48747;50.250;18.848;2023-09-12T07:28:42;22.50;99.90
37356;DHT22;48747;50.250;18.848;2023-09-12T07:30:46;22.50;99.90
37356;DHT22;48747;50.250;18.848;2023-09-12T07:32:49;22.50;99.90
37356;DHT22;48747;50.250;18.848;2023-09-12T07:34:53;22.60;99.90
37356;DHT22;48747;50.250;18.848;2023-09-12T07:36:56;22.60;99.90
37356;DHT22;48747;50.250;18.848;2023-09-12T07:39:00;22.60;99.90
37356;DHT22;48747;50.250;18.848;2023-09-12T07:41:03;22.70;99.90
37356;DHT22;48747;50.250;18.848;2023-09-12T07:43:06;22.80;99.90
37356;DHT22;48747;50.250;18.848;2023-09-12T07:45:09;22.90;99.90
37356;DHT22;48747;50.250;18.848;2023-09-12T07:47:13;23.00;99.90
37356;DHT22;48747;50.250;18.848;2023-09-12T07:49:17;23.10;99.90
37356;DHT22;48747;50.250;18.848;2023-09-12T07:51:20;23.10;99.90
37356;DHT22;48747;50.250;18.848;2023-09-12T07:53:24;23.10;99.90
37356;DHT22;48747;50.250;18.848;2023-09-12T07:55:28;23.20;99.90
37356;DHT22;48747;50.250;18.848;2023-09-12T07:57:33;23.20;99.90
37356;DHT22;48747;50.250;18.848;2023-09-12T07:59:36;23.20;99.90
37356;DHT22;48747;50.250;18.848;2023-09-12T08:01:39;23.40;99.90
37356;DHT22;48747;50.250;18.848;2023-09-12T08:03:43;23.40;99.90
37356;DHT22;48747;50.250;18.848;2023-09-12T08:05:56;23.50;99.90
37356;DHT22;48747;50.250;18.848;2023-09-12T08:07:59;23.60;99.90
37356;DHT22;48747;50.250;18.848;2023-09-12T08:10:03;23.60;99.90
37356;DHT22;48747;50.250;18.848;2023-09-12T08:12:06;23.70;99.90
37356;DHT22;48747;50.250;18.848;2023-09-12T08:14:10;23.80;99.90
37356;DHT22;48747;50.250;18.848;2023-09-12T08:16:27;23.90;99.90
37356;DHT22;48747;50.250;18.848;2023-09-12T08:18:18;23.90;99.90
37356;DHT22;48747;50.250;18.848;2023-09-12T08:20:21;24.10;99.90
37356;DHT22;48747;50.250;18.848;2023-09-12T08:22:24;24.10;99.90
37356;DHT22;48747;50.250;18.848;2023-09-12T08:24:27;24.20;99.90
37356;DHT22;48747;50.250;18.848;2023-09-12T08:26:30;24.40;99.90
37356;DHT22;48747;50.250;18.848;2023-09-12T08:28:33;24.40;99.90
37356;DHT22;48747;50.250;18.848;2023-09-12T08:30:37;24.50;99.90
37356;DHT22;48747;50.250;18.848;2023-09-12T08:32:40;24.60;99.90
37356;DHT22;48747;50.250;18.848;2023-09-12T08:34:45;24.70;99.90
37356;DHT22;48747;50.250;18.848;2023-09-12T08:36:49;24.80;99.90
37356;DHT22;48747;50.250;18.848;2023-09-12T08:38:52;24.90;99.90
37356;DHT22;48747;50.250;18.848;2023-09-12T08:40:55;25.10;99.90
37356;DHT22;48747;50.250;18.848;2023-09-12T08:42:59;25.10;99.90
37356;DHT22;48747;50.250;18.848;2023-09-12T08:45:02;25.10;99.90
37356;DHT22;48747;50.250;18.848;2023-09-12T08:47:08;25.20;99.90
37356;DHT22;48747;50.250;18.848;2023-09-12T08:49:12;25.30;99.90
37356;DHT22;48747;50.250;18.848;2023-09-12T08:51:15;25.50;99.90
37356;DHT22;48747;50.250;18.848;2023-09-12T08:53:18;25.60;99.90
37356;DHT22;48747;50.250;18.848;2023-09-12T08:55:23;25.70;99.90
37356;DHT22;48747;50.250;18.848;2023-09-12T08:57:27;25.80;99.90
37356;DHT22;48747;50.250;18.848;2023-09-12T08:59:31;25.90;99.90
37356;DHT22;48747;50.250;18.848;2023-09-12T09:01:36;26.00;99.90
37356;DHT22;48747;50.250;18.848;2023-09-12T09:03:41;26.10;99.90
37356;DHT22;48747;50.250;18.848;2023-09-12T09:05:45;26.20;99.90
37356;DHT22;48747;50.250;18.848;2023-09-12T09:07:51;26.20;99.90
37356;DHT22;48747;50.250;18.848;2023-09-12T09:09:55;26.30;99.90
37356;DHT22;48747;50.250;18.848;2023-09-12T09:11:58;26.30;99.90
37356;DHT22;48747;50.250;18.848;2023-09-12T09:14:04;26.40;99.90
37356;DHT22;48747;50.250;18.848;2023-09-12T09:16:15;26.40;99.90
37356;DHT22;48747;50.250;18.848;2023-09-12T09:18:18;26.50;99.90
37356;DHT22;48747;50.250;18.848;2023-09-12T09:20:31;26.60;99.90
37356;DHT22;48747;50.250;18.848;2023-09-12T09:22:31;26.60;99.90
37356;DHT22;48747;50.250;18.848;2023-09-12T09:24:34;26.50;99.90
37356;DHT22;48747;50.250;18.848;2023-09-12T09:26:43;26.50;99.90
37356;DHT22;48747;50.250;18.848;2023-09-12T09:29:01;26.60;99.90
37356;DHT22;48747;50.250;18.848;2023-09-12T09:30:51;26.60;99.90
37356;DHT22;48747;50.250;18.848;2023-09-12T09:32:58;26.60;99.90
37356;DHT22;48747;50.250;18.848;2023-09-12T09:35:01;26.70;99.90
37356;DHT22;48747;50.250;18.848;2023-09-12T09:37:05;26.80;99.90
37356;DHT22;48747;50.250;18.848;2023-09-12T09:39:10;26.80;99.90
37356;DHT22;48747;50.250;18.848;2023-09-12T09:41:13;26.80;99.90
37356;DHT22;48747;50.250;18.848;2023-09-12T09:43:21;26.80;99.90
37356;DHT22;48747;50.250;18.848;2023-09-12T09:45:24;26.90;99.90
37356;DHT22;48747;50.250;18.848;2023-09-12T09:47:28;27.00;99.90
37356;DHT22;48747;50.250;18.848;2023-09-12T09:49:34;27.10;99.50
37356;DHT22;48747;50.250;18.848;2023-09-12T09:51:44;27.20;98.00
37356;DHT22;48747;50.250;18.848;2023-09-12T09:53:51;27.20;98.50
37356;DHT22;48747;50.250;18.848;2023-09-12T09:56:06;27.20;98.20
37356;DHT22;48747;50.250;18.848;2023-09-12T09:57:58;27.30;98.10
37356;DHT22;48747;50.250;18.848;2023-09-12T10:00:01;27.40;97.50
37356;DHT22;48747;50.250;18.848;2023-09-12T10:02:07;27.50;99.60
37356;DHT22;48747;50.250;18.848;2023-09-12T10:04:12;27.40;96.40
37356;DHT22;48747;50.250;18.848;2023-09-12T10:06:16;27.30;96.40
37356;DHT22;48747;50.250;18.848;2023-09-12T10:08:20;27.30;98.10
37356;DHT22;48747;50.250;18.848;2023-09-12T10:10:26;27.30;98.80
37356;DHT22;48747;50.250;18.848;2023-09-12T10:12:31;27.30;98.00
37356;DHT22;48747;50.250;18.848;2023-09-12T10:14:36;27.40;97.50
37356;DHT22;48747;50.250;18.848;2023-09-12T10:16:48;27.50;95.10
37356;DHT22;48747;50.250;18.848;2023-09-12T10:21:15;27.70;89.50
37356;DHT22;48747;50.250;18.848;2023-09-12T10:23:39;27.80;81.90
37356;DHT22;48747;50.250;18.848;2023-09-12T10:25:44;27.80;83.60
37356;DHT22;48747;50.250;18.848;2023-09-12T10:27:49;27.90;78.40
37356;DHT22;48747;50.250;18.848;2023-09-12T10:29:53;27.90;78.90
37356;DHT22;48747;50.250;18.848;2023-09-12T10:31:58;27.90;79.40
37356;DHT22;48747;50.250;18.848;2023-09-12T10:34:01;27.90;79.30
37356;DHT22;48747;50.250;18.848;2023-09-12T10:36:06;27.90;77.70
37356;DHT22;48747;50.250;18.848;2023-09-12T10:38:12;27.90;74.00
37356;DHT22;48747;50.250;18.848;2023-09-12T10:40:17;27.90;78.50
37356;DHT22;48747;50.250;18.848;2023-09-12T10:42:21;27.90;77.60
37356;DHT22;48747;50.250;18.848;2023-09-12T10:44:25;27.90;78.50
37356;DHT22;48747;50.250;18.848;2023-09-12T10:46:28;28.00;80.60
37356;DHT22;48747;50.250;18.848;2023-09-12T10:48:32;28.10;77.70
37356;DHT22;48747;50.250;18.848;2023-09-12T10:50:38;28.20;77.50
37356;DHT22;48747;50.250;18.848;2023-09-12T10:52:43;28.30;76.20
37356;DHT22;48747;50.250;18.848;2023-09-12T10:54:46;28.30;73.60
37356;DHT22;48747;50.250;18.848;2023-09-12T10:57:03;28.40;71.50
37356;DHT22;48747;50.250;18.848;2023-09-12T10:59:08;28.50;68.70
37356;DHT22;48747;50.250;18.848;2023-09-12T11:01:22;28.50;68.80
37356;DHT22;48747;50.250;18.848;2023-09-12T11:05:37;28.60;69.70
37356;DHT22;48747;50.250;18.848;2023-09-12T11:09:49;28.50;65.30
37356;DHT22;48747;50.250;18.848;2023-09-12T11:12:03;28.60;64.60
37356;DHT22;48747;50.250;18.848;2023-09-12T11:14:08;28.60;65.50
37356;DHT22;48747;50.250;18.848;2023-09-12T11:16:13;28.60;65.00
37356;DHT22;48747;50.250;18.848;2023-09-12T11:18:16;28.70;65.90
37356;DHT22;48747;50.250;18.848;2023-09-12T11:20:20;28.70;65.50
37356;DHT22;48747;50.250;18.848;2023-09-12T11:22:27;28.70;64.50
37356;DHT22;48747;50.250;18.848;2023-09-12T11:24:32;28.80;65.10
37356;DHT22;48747;50.250;18.848;2023-09-12T11:26:57;28.80;65.50
37356;DHT22;48747;50.250;18.848;2023-09-12T11:29:13;28.80;65.60
37356;DHT22;48747;50.250;18.848;2023-09-12T11:31:26;28.90;65.40
37356;DHT22;48747;50.250;18.848;2023-09-12T11:33:29;28.80;64.50
37356;DHT22;48747;50.250;18.848;2023-09-12T11:35:37;28.90;65.90
37356;DHT22;48747;50.250;18.848;2023-09-12T11:37:53;28.90;66.20
37356;DHT22;48747;50.250;18.848;2023-09-12T11:39:58;29.00;66.00
37356;DHT22;48747;50.250;18.848;2023-09-12T11:42:03;29.00;64.00
37356;DHT22;48747;50.250;18.848;2023-09-12T11:44:07;29.00;63.70
37356;DHT22;48747;50.250;18.848;2023-09-12T11:46:10;28.90;64.10
37356;DHT22;48747;50.250;18.848;2023-09-12T11:48:13;28.90;63.90
37356;DHT22;48747;50.250;18.848;2023-09-12T11:52:38;29.00;65.10
37356;DHT22;48747;50.250;18.848;2023-09-12T11:54:41;29.10;65.80
37356;DHT22;48747;50.250;18.848;2023-09-12T11:56:50;29.20;63.60
37356;DHT22;48747;50.250;18.848;2023-09-12T11:58:50;29.20;63.70
37356;DHT22;48747;50.250;18.848;2023-09-12T12:00:57;29.10;64.50
37356;DHT22;48747;50.250;18.848;2023-09-12T12:03:05;29.00;64.50
37356;DHT22;48747;50.250;18.848;2023-09-12T12:05:09;28.90;64.60
37356;DHT22;48747;50.250;18.848;2023-09-12T12:07:13;28.90;64.40
37356;DHT22;48747;50.250;18.848;2023-09-12T12:09:17;28.90;65.40
37356;DHT22;48747;50.250;18.848;2023-09-12T12:11:27;28.90;64.50
37356;DHT22;48747;50.250;18.848;2023-09-12T12:13:28;29.00;64.10
37356;DHT22;48747;50.250;18.848;2023-09-12T12:15:31;29.10;63.90
37356;DHT22;48747;50.250;18.848;2023-09-12T12:17:34;29.10;64.30
37356;DHT22;48747;50.250;18.848;2023-09-12T12:19:39;29.00;64.80
37356;DHT22;48747;50.250;18.848;2023-09-12T12:21:42;28.80;66.00
37356;DHT22;48747;50.250;18.848;2023-09-12T12:23:46;28.60;65.30
37356;DHT22;48747;50.250;18.848;2023-09-12T12:25:49;28.70;66.10
37356;DHT22;48747;50.250;18.848;2023-09-12T12:27:52;28.70;65.00
37356;DHT22;48747;50.250;18.848;2023-09-12T12:29:55;28.70;64.70
37356;DHT22;48747;50.250;18.848;2023-09-12T12:32:02;28.90;66.30
37356;DHT22;48747;50.250;18.848;2023-09-12T12:34:07;28.90;64.50
37356;DHT22;48747;50.250;18.848;2023-09-12T12:36:10;28.90;63.70
37356;DHT22;48747;50.250;18.848;2023-09-12T12:38:13;29.00;65.20
37356;DHT22;48747;50.250;18.848;2023-09-12T12:40:17;29.10;65.60
37356;DHT22;48747;50.250;18.848;2023-09-12T12:42:20;29.30;62.70
37356;DHT22;48747;50.250;18.848;2023-09-12T12:44:33;29.60;62.50
37356;DHT22;48747;50.250;18.848;2023-09-12T12:46:53;29.80;61.20
37356;DHT22;48747;50.250;18.848;2023-09-12T12:48:57;29.80;62.50
37356;DHT22;48747;50.250;18.848;2023-09-12T12:51:11;29.90;61.80
37356;DHT22;48747;50.250;18.848;2023-09-12T12:53:05;29.90;61.30
37356;DHT22;48747;50.250;18.848;2023-09-12T12:55:10;29.80;61.20
37356;DHT22;48747;50.250;18.848;2023-09-12T12:57:13;29.90;61.00
37356;DHT22;48747;50.250;18.848;2023-09-12T12:59:18;29.90;60.90
37356;DHT22;48747;50.250;18.848;2023-09-12T13:01:22;29.90;61.50
37356;DHT22;48747;50.250;18.848;2023-09-12T13:03:25;30.00;61.50